Time;durP1;ratioP1;P1;durP2;ratioP2;P2;SDS_P1;SDS_P2;PMS_P1;PMS_P2;Temp;Humidity;BMP_temperature;BMP_pressure;BME280_temperature;BME280_humidity;BME280_pressure;Samples;Min_cycle;Max_cycle;Signal;HPM_P1;HPM_P2
2023/03/13 00:01:49;;;;;;;5.38;1.42;;;;;;;13.74;100.00;98818.28;5042344;28;20045;-52
2023/03/13 00:04:14;;;;;;;8.23;2.97;;;;;;;13.71;100.00;98826.78;5039203;28;20467;-56
2023/03/13 00:06:40;;;;;;;11.23;2.88;;;;;;;13.77;100.00;98818.81;5046024;28;20034;-53
2023/03/13 00:09:08;;;;;;;8.88;1.85;;;;;;;13.73;100.00;98800.69;5042184;28;20040;-55
2023/03/13 00:11:34;;;;;;;6.07;2.47;;;;;;;13.76;100.00;98788.72;5047095;28;20047;-56
2023/03/13 00:14:01;;;;;;;7.30;1.48;;;;;;;13.81;100.00;98771.97;5047361;28;20033;-52
2023/03/13 00:16:28;;;;;;;6.25;3.13;;;;;;;13.86;100.00;98764.00;5045768;28;20402;-53
2023/03/13 00:18:55;;;;;;;4.60;1.75;;;;;;;13.87;100.00;98760.31;5044705;28;20057;-55
2023/03/13 00:21:23;;;;;;;7.45;2.47;;;;;;;13.88;100.00;98751.25;5047062;28;20037;-54
2023/03/13 00:23:48;;;;;;;10.73;2.30;;;;;;;13.96;100.00;98743.63;5038782;28;20040;-53
2023/03/13 00:26:17;;;;;;;7.90;2.65;;;;;;;13.88;100.00;98737.94;5042240;28;20033;-54
2023/03/13 00:28:42;;;;;;;6.22;2.88;;;;;;;13.84;100.00;98752.84;5047688;28;20048;-54
2023/03/13 00:31:13;;;;;;;7.35;1.58;;;;;;;13.91;100.00;98743.56;5039783;28;20044;-54
2023/03/13 00:33:42;;;;;;;6.68;2.17;;;;;;;13.82;100.00;98729.09;5052289;28;20525;-61
2023/03/13 00:36:12;;;;;;;10.52;2.05;;;;;;;13.99;100.00;98736.94;5047492;28;20041;-58
2023/03/13 00:38:38;;;;;;;11.65;2.55;;;;;;;13.98;100.00;98734.56;5047683;28;20024;-60
2023/03/13 00:41:11;;;;;;;7.47;1.33;;;;;;;13.93;100.00;98722.78;5049000;28;20616;-53
2023/03/13 00:43:37;;;;;;;12.65;3.28;;;;;;;14.02;100.00;98717.81;5042228;28;20029;-54
2023/03/13 00:46:03;;;;;;;14.13;3.78;;;;;;;14.10;100.00;98716.53;5049586;28;20040;-61
2023/03/13 00:48:28;;;;;;;8.93;3.58;;;;;;;13.94;100.00;98705.75;5055737;28;20036;-57
2023/03/13 00:50:54;;;;;;;14.70;3.80;;;;;;;13.80;100.00;98709.91;5052461;28;20589;-54
2023/03/13 00:53:20;;;;;;;13.32;3.20;;;;;;;13.93;100.00;98706.00;5055835;28;20040;-53
2023/03/13 00:55:56;;;;;;;9.40;3.97;;;;;;;14.02;100.00;98706.31;5048653;28;20037;-51
2023/03/13 00:58:22;;;;;;;16.98;3.70;;;;;;;13.87;100.00;98717.69;5054683;28;20447;-58
2023/03/13 01:00:48;;;;;;;12.20;3.38;;;;;;;13.96;100.00;98694.81;5048281;28;20036;-53
2023/03/13 01:03:13;;;;;;;14.98;2.08;;;;;;;14.03;100.00;98690.09;5053127;28;20044;-53
2023/03/13 01:05:39;;;;;;;14.15;2.83;;;;;;;14.00;100.00;98682.59;5047727;28;20024;-57
2023/03/13 01:08:04;;;;;;;15.90;2.25;;;;;;;13.84;100.00;98691.56;5057776;28;20525;-55
2023/03/13 01:10:30;;;;;;;11.88;3.00;;;;;;;13.82;100.00;98699.81;5052653;28;20028;-60
2023/03/13 01:12:55;;;;;;;10.65;1.50;;;;;;;13.90;100.00;98703.84;5043371;28;20082;-56
2023/03/13 01:15:20;;;;;;;15.02;2.35;;;;;;;13.85;100.00;98687.84;5046207;28;20367;-51
2023/03/13 01:17:46;;;;;;;5.45;0.80;;;;;;;13.73;100.00;98699.47;5048187;28;20044;-58
2023/03/13 01:20:12;;;;;;;10.82;2.35;;;;;;;13.80;100.00;98715.22;5044597;28;20037;-52
2023/03/13 01:22:37;;;;;;;4.10;1.50;;;;;;;13.70;100.00;98715.94;5050507;28;20462;-53
2023/03/13 01:25:04;;;;;;;9.48;2.22;;;;;;;13.94;100.00;98711.09;5055899;28;20044;-56
2023/03/13 01:27:30;;;;;;;8.45;2.88;;;;;;;13.86;100.00;98702.75;5052110;28;20137;-54
2023/03/13 01:29:55;;;;;;;7.07;2.83;;;;;;;13.82;100.00;98701.66;5047052;28;20116;-51
2023/03/13 01:32:21;;;;;;;11.32;1.42;;;;;;;13.86;100.00;98710.75;5049374;28;20029;-50
2023/03/13 01:34:46;;;;;;;9.27;2.35;;;;;;;13.77;100.00;98714.94;5043273;28;20029;-49
2023/03/13 01:37:11;;;;;;;11.45;3.03;;;;;;;13.75;100.00;98699.22;5046316;28;20029;-48
2023/03/13 01:39:37;;;;;;;3.97;0.73;;;;;;;13.86;100.00;98692.09;5046349;28;21060;-48
2023/03/13 01:42:03;;;;;;;7.60;1.52;;;;;;;13.74;100.00;98687.75;5047886;28;20113;-47
2023/03/13 01:44:29;;;;;;;2.35;0.73;;;;;;;13.70;100.00;98697.31;5046173;28;20020;-53
2023/03/13 01:46:54;;;;;;;1.10;0.85;;;;;;;13.75;100.00;98691.22;5048411;28;20043;-48
2023/03/13 01:49:28;;;;;;;1.95;0.20;;;;;;;13.73;100.00;98677.34;5050171;28;20108;-52
2023/03/13 01:52:06;;;;;;;2.53;1.20;;;;;;;13.67;100.00;98681.03;5056472;28;20127;-60
2023/03/13 01:54:41;;;;;;;1.05;0.30;;;;;;;13.82;100.00;98678.50;5050962;28;20363;-47
2023/03/13 01:57:21;;;;;;;2.28;0.15;;;;;;;13.80;100.00;98663.81;5047881;28;20044;-48
2023/03/13 01:59:52;;;;;;;4.03;0.75;;;;;;;13.70;100.00;98643.25;5047655;28;20089;-52
2023/03/13 02:02:19;;;;;;;3.33;0.38;;;;;;;13.79;100.00;98656.91;5046282;28;20378;-48
2023/03/13 02:04:48;;;;;;;0.47;0.25;;;;;;;13.69;100.00;98653.09;5037406;28;20025;-52
2023/03/13 02:07:19;;;;;;;1.90;0.28;;;;;;;13.64;100.00;98639.75;5047832;28;20032;-47
2023/03/13 02:09:50;;;;;;;3.83;0.57;;;;;;;13.56;100.00;98626.13;5048711;28;21245;-60
2023/03/13 02:12:23;;;;;;;2.83;0.35;;;;;;;13.61;100.00;98623.50;5045270;28;20040;-53
2023/03/13 02:14:49;;;;;;;2.38;0.65;;;;;;;13.57;100.00;98627.72;5046737;28;20143;-50
2023/03/13 02:17:15;;;;;;;4.50;0.60;;;;;;;13.50;100.00;98619.94;5048820;28;20105;-50
2023/03/13 02:19:46;;;;;;;5.72;0.40;;;;;;;13.48;100.00;98620.19;5047433;28;20143;-52
2023/03/13 02:22:14;;;;;;;1.35;0.10;;;;;;;13.53;100.00;98612.25;5045925;28;20030;-51
2023/03/13 02:24:58;;;;;;;2.05;0.40;;;;;;;13.55;100.00;98606.66;5050791;28;20399;-47
2023/03/13 02:27:23;;;;;;;2.85;0.40;;;;;;;13.65;100.00;98598.72;5047843;28;20132;-49
2023/03/13 02:29:50;;;;;;;0.22;0.00;;;;;;;13.60;100.00;98597.91;5044300;28;20154;-52
2023/03/13 02:32:16;;;;;;;0.08;0.08;;;;;;;13.57;100.00;98590.44;5043618;28;20070;-59
2023/03/13 02:34:44;;;;;;;1.95;0.00;;;;;;;13.72;100.00;98593.19;5046478;28;20404;-51
2023/03/13 02:37:12;;;;;;;2.33;0.17;;;;;;;13.81;100.00;98601.50;5049999;28;20032;-52
2023/03/13 02:39:44;;;;;;;2.58;0.00;;;;;;;13.79;100.00;98574.34;5049274;28;20033;-50
2023/03/13 02:42:11;;;;;;;3.40;0.30;;;;;;;13.78;100.00;98573.50;5045005;28;20116;-49
2023/03/13 02:44:40;;;;;;;0.00;0.00;;;;;;;13.49;100.00;98563.22;5050320;28;20024;-48
2023/03/13 02:47:06;;;;;;;0.43;0.00;;;;;;;13.55;100.00;98574.69;5043982;28;20029;-52
2023/03/13 02:49:31;;;;;;;1.17;0.57;;;;;;;13.55;100.00;98582.69;5047218;28;20086;-50
2023/03/13 02:52:03;;;;;;;4.53;0.10;;;;;;;13.49;100.00;98578.41;5050836;28;20043;-50
2023/03/13 02:54:34;;;;;;;0.82;0.10;;;;;;;13.58;100.00;98566.22;5049070;28;20082;-49
2023/03/13 02:57:02;;;;;;;0.20;0.10;;;;;;;13.67;100.00;98562.00;5049040;28;20040;-48
2023/03/13 02:59:28;;;;;;;0.63;0.00;;;;;;;13.57;100.00;98555.81;5053607;28;20029;-49
2023/03/13 03:01:53;;;;;;;0.68;0.00;;;;;;;13.57;100.00;98553.94;5044203;28;20040;-49
2023/03/13 03:04:21;;;;;;;0.30;0.00;;;;;;;13.41;100.00;98560.25;5050358;28;20047;-49
2023/03/13 03:06:47;;;;;;;0.43;0.05;;;;;;;13.44;100.00;98559.72;5042191;28;20581;-49
2023/03/13 03:09:12;;;;;;;0.22;0.10;;;;;;;13.45;100.00;98558.66;5048122;28;20028;-60
2023/03/13 03:11:38;;;;;;;0.75;0.28;;;;;;;13.59;100.00;98559.03;5048433;28;20087;-59
2023/03/13 03:14:04;;;;;;;0.20;0.20;;;;;;;13.69;100.00;98543.91;5044267;28;20027;-57
2023/03/13 03:16:29;;;;;;;2.53;0.30;;;;;;;13.65;100.00;98540.16;5043627;28;20115;-47
2023/03/13 03:18:55;;;;;;;0.75;0.10;;;;;;;13.57;100.00;98535.31;5044528;28;20120;-46
2023/03/13 03:21:22;;;;;;;0.73;0.08;;;;;;;13.56;100.00;98523.06;5035537;28;20107;-49
2023/03/13 03:23:48;;;;;;;1.55;0.65;;;;;;;13.53;100.00;98508.41;5050180;28;20386;-47
2023/03/13 03:26:14;;;;;;;0.00;0.00;;;;;;;13.50;100.00;98532.06;5042538;28;20031;-52
2023/03/13 03:28:39;;;;;;;0.93;0.38;;;;;;;13.64;100.00;98505.81;5045178;28;20432;-48
2023/03/13 03:31:10;;;;;;;0.50;0.10;;;;;;;13.55;100.00;98502.81;5045581;28;20023;-50
2023/03/13 03:33:36;;;;;;;0.43;0.00;;;;;;;13.67;100.00;98498.09;5042212;28;20048;-47
2023/03/13 03:36:05;;;;;;;0.20;0.00;;;;;;;13.74;100.00;98501.31;5040582;28;20033;-50
2023/03/13 03:38:30;;;;;;;0.10;0.00;;;;;;;13.79;100.00;98494.44;5045850;28;20028;-56
2023/03/13 03:40:56;;;;;;;1.67;0.10;;;;;;;13.57;100.00;98499.91;5035986;28;20036;-48
2023/03/13 03:43:21;;;;;;;0.08;0.00;;;;;;;13.61;100.00;98493.81;5040176;28;20082;-51
2023/03/13 03:45:47;;;;;;;0.10;0.10;;;;;;;13.72;100.00;98490.13;5037911;28;20028;-51
2023/03/13 03:48:12;;;;;;;3.97;0.00;;;;;;;13.76;100.00;98490.41;5049051;28;20115;-49
2023/03/13 03:50:37;;;;;;;0.73;0.00;;;;;;;13.60;100.00;98499.38;5043817;28;20052;-56
2023/03/13 03:53:02;;;;;;;1.13;0.10;;;;;;;13.66;100.00;98520.47;5044463;28;20119;-56
2023/03/13 03:55:28;;;;;;;0.00;0.00;;;;;;;13.63;100.00;98502.34;5045890;28;20048;-54
2023/03/13 03:57:53;;;;;;;0.90;0.30;;;;;;;13.66;100.00;98499.16;5050496;28;20035;-52
2023/03/13 04:00:18;;;;;;;0.70;0.03;;;;;;;13.74;100.00;98513.84;5047603;28;20058;-48
2023/03/13 04:02:44;;;;;;;1.30;0.00;;;;;;;13.61;100.00;98509.78;5042637;28;20045;-52
2023/03/13 04:05:09;;;;;;;0.08;0.08;;;;;;;13.67;100.00;98503.41;5037014;28;20124;-57
2023/03/13 04:07:35;;;;;;;0.52;0.00;;;;;;;13.64;100.00;98495.94;5051153;28;20379;-50
2023/03/13 04:10:01;;;;;;;2.45;0.10;;;;;;;13.77;100.00;98510.66;5052075;28;20371;-51
2023/03/13 04:12:26;;;;;;;1.08;0.08;;;;;;;13.87;100.00;98504.56;5048201;28;20036;-48
2023/03/13 04:14:52;;;;;;;0.35;0.00;;;;;;;13.74;100.00;98498.66;5049728;28;20443;-54
2023/03/13 04:17:17;;;;;;;0.45;0.00;;;;;;;13.43;100.00;98468.41;5055338;28;21238;-52
2023/03/13 04:19:42;;;;;;;1.60;0.10;;;;;;;13.72;100.00;98476.00;5057690;28;20070;-53
2023/03/13 04:22:08;;;;;;;0.00;0.00;;;;;;;13.78;100.00;98471.50;5047565;28;20036;-53
2023/03/13 04:24:33;;;;;;;3.70;0.00;;;;;;;13.73;100.00;98466.94;5048004;28;20052;-53
2023/03/13 04:26:59;;;;;;;0.68;0.25;;;;;;;13.69;100.00;98465.88;5063924;28;20032;-53
2023/03/13 04:29:24;;;;;;;1.02;0.00;;;;;;;13.74;100.00;98458.72;5050586;28;20044;-53
2023/03/13 04:31:49;;;;;;;4.00;0.75;;;;;;;13.69;100.00;98445.38;5051673;28;20144;-56
2023/03/13 04:34:15;;;;;;;1.77;0.20;;;;;;;13.78;100.00;98436.88;5051367;28;20116;-58
2023/03/13 04:36:40;;;;;;;3.05;0.52;;;;;;;13.71;100.00;98434.47;5053837;28;20036;-57
2023/03/13 04:39:06;;;;;;;2.08;0.50;;;;;;;13.66;100.00;98421.94;5046757;28;20445;-49
2023/03/13 04:41:31;;;;;;;4.45;1.08;;;;;;;13.57;100.00;98414.69;5054619;28;20029;-52
2023/03/13 04:43:57;;;;;;;5.95;0.35;;;;;;;13.56;100.00;98413.91;5047468;28;20083;-52
2023/03/13 04:46:22;;;;;;;2.25;0.57;;;;;;;13.57;100.00;98409.38;5051973;28;20052;-50
2023/03/13 04:48:47;;;;;;;3.67;2.25;;;;;;;13.57;100.00;98414.69;5055468;28;20047;-50
2023/03/13 04:51:13;;;;;;;7.40;2.63;;;;;;;13.57;100.00;98404.84;5055542;28;20020;-57
2023/03/13 04:53:38;;;;;;;4.05;2.30;;;;;;;13.50;100.00;98406.94;5049001;28;20040;-52
2023/03/13 04:56:05;;;;;;;8.65;2.33;;;;;;;13.49;100.00;98408.81;5056091;28;20069;-50
2023/03/13 04:58:30;;;;;;;6.18;1.10;;;;;;;13.41;100.00;98413.84;5058481;28;20450;-50
2023/03/13 05:00:55;;;;;;;9.75;1.42;;;;;;;13.48;100.00;98417.06;5046434;28;20290;-60
2023/03/13 05:03:22;;;;;;;5.50;0.73;;;;;;;13.31;100.00;98422.56;5051381;28;20029;-50
2023/03/13 05:05:47;;;;;;;5.43;0.80;;;;;;;13.44;100.00;98426.63;5044739;28;20051;-57
2023/03/13 05:08:12;;;;;;;9.02;0.60;;;;;;;13.45;100.00;98433.53;5051889;28;20041;-49
2023/03/13 05:10:38;;;;;;;8.02;1.40;;;;;;;13.34;100.00;98431.91;5056991;28;20032;-60
2023/03/13 05:13:03;;;;;;;3.53;1.20;;;;;;;13.38;100.00;98415.16;5046703;28;20114;-52
2023/03/13 05:15:28;;;;;;;3.65;0.98;;;;;;;13.46;100.00;98404.00;5054275;28;20056;-52
2023/03/13 05:17:54;;;;;;;6.28;1.30;;;;;;;13.58;100.00;98411.78;5050259;28;20048;-53
2023/03/13 05:20:19;;;;;;;8.45;3.15;;;;;;;13.39;100.00;98407.97;5046447;28;20072;-52
2023/03/13 05:22:44;;;;;;;3.47;0.90;;;;;;;13.43;100.00;98403.75;5046054;28;20525;-58
2023/03/13 05:25:10;;;;;;;10.57;3.75;;;;;;;13.47;100.00;98399.47;5052160;28;20039;-58
2023/03/13 05:27:35;;;;;;;6.43;1.38;;;;;;;13.35;100.00;98404.25;5057303;28;20059;-55
2023/03/13 05:30:00;;;;;;;10.93;1.50;;;;;;;13.41;100.00;98425.28;5053451;28;20166;-52
2023/03/13 05:32:26;;;;;;;6.75;1.50;;;;;;;13.54;100.00;98394.72;5053748;28;20117;-53
2023/03/13 05:34:51;;;;;;;10.52;1.70;;;;;;;13.66;100.00;98394.50;5055775;28;20481;-52
2023/03/13 05:37:16;;;;;;;7.15;2.58;;;;;;;13.66;100.00;98381.19;5051216;28;20029;-49
2023/03/13 05:39:42;;;;;;;10.65;2.97;;;;;;;13.52;100.00;98400.28;5050094;28;20056;-60
2023/03/13 05:42:07;;;;;;;12.35;2.53;;;;;;;13.45;100.00;98388.28;5049072;28;20025;-50
2023/03/13 05:44:32;;;;;;;10.18;2.10;;;;;;;13.56;100.00;98384.63;5048440;28;20028;-52
2023/03/13 05:46:58;;;;;;;7.65;1.90;;;;;;;13.59;100.00;98376.09;5049324;28;20557;-58
2023/03/13 05:49:23;;;;;;;11.98;1.85;;;;;;;13.65;100.00;98374.25;5050966;28;20040;-54
2023/03/13 05:51:49;;;;;;;13.90;1.92;;;;;;;13.54;100.00;98370.75;5042085;28;20049;-54
2023/03/13 05:54:14;;;;;;;14.93;2.90;;;;;;;13.48;100.00;98366.50;5050344;28;20128;-52
2023/03/13 05:56:40;;;;;;;13.38;3.67;;;;;;;13.48;100.00;98363.84;5052113;28;20038;-53
2023/03/13 05:59:05;;;;;;;13.23;2.85;;;;;;;13.59;100.00;98375.31;5055689;28;20025;-60
2023/03/13 06:01:30;;;;;;;7.65;1.63;;;;;;;13.51;100.00;98381.94;5047387;28;20024;-52
2023/03/13 06:03:55;;;;;;;15.40;3.80;;;;;;;13.54;100.00;98378.75;5047836;28;20291;-53
2023/03/13 06:06:21;;;;;;;14.38;1.75;;;;;;;13.36;100.00;98382.66;5048721;28;20072;-49
2023/03/13 06:08:46;;;;;;;17.63;3.65;;;;;;;13.42;100.00;98386.16;5049263;28;20060;-49
2023/03/13 06:11:12;;;;;;;18.00;3.08;;;;;;;13.36;100.00;98385.34;5045707;28;20067;-48
2023/03/13 06:13:37;;;;;;;11.38;2.95;;;;;;;13.43;100.00;98393.88;5038824;28;20040;-55
2023/03/13 06:16:02;;;;;;;15.07;3.95;;;;;;;13.34;100.00;98368.03;5046831;28;20543;-57
2023/03/13 06:18:28;;;;;;;18.63;3.40;;;;;;;13.48;100.00;98367.28;5046461;28;20055;-53
2023/03/13 06:20:58;;;;;;;11.82;2.88;;;;;;;13.56;100.00;98354.53;5039765;28;20029;-49
2023/03/13 06:23:24;;;;;;;7.43;2.30;;;;;;;13.44;100.00;98384.03;5048231;28;20430;-52
2023/03/13 06:25:49;;;;;;;21.85;4.82;;;;;;;13.44;100.00;98344.91;5044882;28;20060;-53
2023/03/13 06:28:15;;;;;;;20.77;2.13;;;;;;;13.53;100.00;98345.22;5048210;28;20440;-49
2023/03/13 06:30:41;;;;;;;24.42;4.63;;;;;;;13.61;100.00;98351.88;5051697;28;20440;-50
2023/03/13 06:33:07;;;;;;;23.25;4.68;;;;;;;13.52;100.00;98324.94;5044568;28;20037;-51
2023/03/13 06:35:32;;;;;;;24.45;4.55;;;;;;;13.40;100.00;98340.34;5047337;28;20090;-54
2023/03/13 06:37:57;;;;;;;29.55;4.38;;;;;;;13.16;100.00;98374.56;5044435;28;20023;-54
2023/03/13 06:40:23;;;;;;;15.48;4.40;;;;;;;13.40;100.00;98325.22;5041964;28;20148;-59
2023/03/13 06:42:48;;;;;;;20.63;4.63;;;;;;;13.36;100.00;98328.66;5037428;28;20132;-56
2023/03/13 06:45:13;;;;;;;18.83;6.32;;;;;;;13.13;100.00;98311.22;5043461;28;20111;-56
2023/03/13 06:47:39;;;;;;;12.73;3.08;;;;;;;13.28;100.00;98295.34;5045137;28;20411;-51
2023/03/13 06:50:04;;;;;;;24.48;4.03;;;;;;;13.20;100.00;98287.84;5042686;28;20040;-57
2023/03/13 06:52:30;;;;;;;17.23;2.95;;;;;;;13.30;100.00;98296.69;5046255;28;20041;-50
2023/03/13 06:54:55;;;;;;;15.85;3.72;;;;;;;13.18;100.00;98303.28;5042504;28;20033;-54
2023/03/13 06:57:20;;;;;;;27.80;3.80;;;;;;;13.24;100.00;98288.91;5038022;28;20040;-59
2023/03/13 06:59:46;;;;;;;25.38;4.15;;;;;;;13.23;100.00;98313.94;5040169;28;20025;-49
2023/03/13 07:02:12;;;;;;;21.10;3.72;;;;;;;13.34;100.00;98304.16;5042604;28;20083;-56
2023/03/13 07:04:37;;;;;;;20.25;4.88;;;;;;;13.31;100.00;98308.94;5047386;28;20038;-60
2023/03/13 07:07:03;;;;;;;26.88;6.28;;;;;;;13.27;100.00;98283.91;5038510;28;20014;-58
2023/03/13 07:09:28;;;;;;;19.75;3.92;;;;;;;13.30;100.00;98283.38;5049041;28;20028;-54
2023/03/13 07:11:54;;;;;;;19.15;5.00;;;;;;;13.24;100.00;98262.31;5039974;28;20478;-50
2023/03/13 07:14:19;;;;;;;25.42;4.35;;;;;;;13.35;100.00;98271.97;5044828;28;20037;-56
2023/03/13 07:16:45;;;;;;;25.70;4.68;;;;;;;13.36;100.00;98288.72;5049872;28;20056;-56
2023/03/13 07:19:10;;;;;;;32.78;4.57;;;;;;;13.52;100.00;98247.75;5045065;28;20048;-56
2023/03/13 07:21:36;;;;;;;18.92;4.53;;;;;;;13.64;100.00;98245.63;5043584;28;20482;-55
2023/03/13 07:24:01;;;;;;;29.52;4.07;;;;;;;13.68;100.00;98252.03;5043668;28;20068;-54
2023/03/13 07:26:27;;;;;;;23.70;4.97;;;;;;;13.45;100.00;98264.00;5047755;28;20029;-52
2023/03/13 07:28:52;;;;;;;16.52;4.35;;;;;;;13.66;100.00;98243.53;5046444;28;20033;-55
2023/03/13 07:31:20;;;;;;;22.02;3.67;;;;;;;13.60;100.00;98254.41;5041924;28;20021;-52
2023/03/13 07:33:46;;;;;;;19.48;4.78;;;;;;;13.44;100.00;98273.03;5043486;28;20065;-54
2023/03/13 07:36:13;;;;;;;21.45;5.43;;;;;;;13.52;100.00;98290.34;5041914;28;20056;-48
2023/03/13 07:38:38;;;;;;;25.70;5.68;;;;;;;13.48;100.00;98281.31;5041206;28;20094;-55
2023/03/13 07:41:04;;;;;;;17.38;5.10;;;;;;;13.46;100.00;98272.78;5047289;28;20025;-62
2023/03/13 07:43:30;;;;;;;29.63;7.03;;;;;;;13.51;100.00;98270.13;5049481;28;20029;-51
2023/03/13 07:45:58;;;;;;;23.27;5.18;;;;;;;13.58;100.00;98265.34;5050898;28;20453;-61
2023/03/13 07:48:27;;;;;;;30.15;6.85;;;;;;;13.67;100.00;98271.72;5042259;28;20618;-56
2023/03/13 07:50:53;;;;;;;16.65;4.45;;;;;;;13.52;100.00;98251.19;5038280;28;20393;-60
2023/03/13 07:53:21;;;;;;;20.77;4.05;;;;;;;13.70;100.00;98260.53;5045079;28;20087;-56
2023/03/13 07:56:02;;;;;;;28.17;3.25;;;;;;;13.56;100.00;98259.47;5048223;28;20060;-52
2023/03/13 07:58:30;;;;;;;18.88;4.82;;;;;;;13.60;100.00;98254.41;5038548;28;20029;-58
2023/03/13 08:00:56;;;;;;;27.17;4.65;;;;;;;13.53;100.00;98257.34;5045897;28;20028;-54
2023/03/13 08:03:22;;;;;;;28.90;5.82;;;;;;;13.59;100.00;98248.28;5046837;28;20033;-56
2023/03/13 08:06:09;;;;;;;19.45;5.00;;;;;;;13.88;100.00;98255.78;5044172;28;20065;-58
2023/03/13 08:08:36;;;;;;;20.88;3.15;;;;;;;13.70;100.00;98249.91;5041827;28;20040;-58
2023/03/13 08:11:04;;;;;;;21.15;4.63;;;;;;;13.64;100.00;98245.63;5041453;28;20034;-57
2023/03/13 08:13:30;;;;;;;16.92;3.58;;;;;;;13.94;100.00;98260.03;5036354;28;20139;-62
2023/03/13 08:16:10;;;;;;;20.85;5.68;;;;;;;14.03;100.00;98244.31;5046853;28;20029;-54
2023/03/13 08:18:37;;;;;;;24.13;3.67;;;;;;;13.95;100.00;98250.97;5040904;28;20041;-59
2023/03/13 08:21:05;;;;;;;27.13;3.65;;;;;;;13.82;100.00;98241.66;5045570;28;20500;-53
2023/03/13 08:23:31;;;;;;;18.63;3.85;;;;;;;13.96;100.00;98257.91;5045749;28;20048;-59
2023/03/13 08:26:02;;;;;;;26.58;6.05;;;;;;;13.88;100.00;98239.78;5042242;28;20028;-57
2023/03/13 08:28:27;;;;;;;24.17;4.72;;;;;;;13.74;100.00;98240.31;5040777;28;20040;-58
2023/03/13 08:30:52;;;;;;;25.45;5.38;;;;;;;13.98;100.00;98237.13;5046277;28;20398;-58
2023/03/13 08:33:17;;;;;;;24.90;3.42;;;;;;;14.02;100.00;98258.69;5042994;28;20057;-57
2023/03/13 08:35:43;;;;;;;20.10;3.60;;;;;;;14.12;100.00;98240.03;5048709;28;20025;-60
2023/03/13 08:38:08;;;;;;;22.50;4.07;;;;;;;14.00;100.00;98224.34;5047009;28;20120;-62
2023/03/13 08:40:33;;;;;;;31.17;6.10;;;;;;;14.05;100.00;98245.66;5040796;28;20033;-54
2023/03/13 08:42:59;;;;;;;12.50;3.30;;;;;;;14.11;100.00;98219.78;5046052;28;20072;-58
2023/03/13 08:45:24;;;;;;;34.65;6.32;;;;;;;13.92;100.00;98246.19;5047499;28;20123;-58
2023/03/13 08:47:53;;;;;;;30.67;4.78;;;;;;;14.13;100.00;98220.31;5038719;28;20487;-57
2023/03/13 08:50:18;;;;;;;10.20;2.13;;;;;;;14.32;100.00;98233.88;5045455;28;20104;-48
2023/03/13 08:52:44;;;;;;;19.77;3.88;;;;;;;14.12;100.00;98208.03;5042549;28;20450;-55
2023/03/13 08:55:10;;;;;;;22.88;6.13;;;;;;;14.23;100.00;98235.50;5050543;28;20032;-60
2023/03/13 08:57:35;;;;;;;17.88;4.30;;;;;;;14.17;100.00;98229.34;5045919;28;20112;-61
2023/03/13 09:00:03;;;;;;;19.70;4.20;;;;;;;14.20;100.00;98226.19;5048390;28;20059;-55
2023/03/13 09:02:29;;;;;;;11.00;3.17;;;;;;;14.46;100.00;98205.59;5050494;28;20059;-58
2023/03/13 09:04:55;;;;;;;27.92;6.63;;;;;;;14.35;100.00;98225.31;5045589;28;20475;-55
2023/03/13 09:07:20;;;;;;;28.90;6.45;;;;;;;14.32;100.00;98228.53;5051857;28;20025;-57
2023/03/13 09:09:45;;;;;;;26.58;7.25;;;;;;;14.36;100.00;98209.06;5043015;28;20024;-56
2023/03/13 09:12:11;;;;;;;31.67;5.80;;;;;;;14.50;100.00;98221.84;5048853;28;20032;-59
2023/03/13 09:14:36;;;;;;;30.27;5.72;;;;;;;14.35;100.00;98220.00;5055358;28;20048;-52
2023/03/13 09:17:03;;;;;;;19.75;3.65;;;;;;;14.48;100.00;98215.97;5051461;28;20071;-51
2023/03/13 09:19:28;;;;;;;28.33;6.88;;;;;;;14.52;100.00;98212.50;5051191;28;20413;-62
2023/03/13 09:21:53;;;;;;;49.20;7.60;;;;;;;14.72;100.00;98206.31;5053781;28;20044;-61
2023/03/13 09:24:19;;;;;;;17.42;5.22;;;;;;;14.57;100.00;98223.16;5057214;28;20032;-51
2023/03/13 09:26:44;;;;;;;29.55;4.65;;;;;;;14.30;100.00;98228.00;5050289;28;20024;-59
2023/03/13 09:29:09;;;;;;;21.00;4.75;;;;;;;14.28;100.00;98232.81;5049614;28;20040;-56
2023/03/13 09:31:37;;;;;;;17.95;4.25;;;;;;;14.49;100.00;98215.72;5046361;28;20048;-52
2023/03/13 09:34:02;;;;;;;24.25;4.70;;;;;;;14.63;100.00;98239.94;5052918;28;20028;-59
2023/03/13 09:36:28;;;;;;;24.48;3.80;;;;;;;14.43;100.00;98219.47;5043867;28;20022;-57
2023/03/13 09:38:56;;;;;;;22.70;2.85;;;;;;;14.59;100.00;98214.91;5043393;28;20112;-56
2023/03/13 09:41:57;;;;;;;17.30;4.18;;;;;;;14.58;100.00;98223.97;5045655;28;20050;-51
2023/03/13 09:44:30;;;;;;;21.85;5.85;;;;;;;14.46;100.00;98202.91;5032478;28;20596;-61
2023/03/13 09:47:05;;;;;;;29.15;6.38;;;;;;;14.86;100.00;98233.19;5051807;28;20081;-59
2023/03/13 09:49:36;;;;;;;28.27;6.10;;;;;;;14.87;100.00;98223.31;5052214;28;20036;-50
2023/03/13 09:52:13;;;;;;;;;;;;;;;14.86;100.00;98205.72;5053680;28;20141;-61
2023/03/13 09:54:54;;;;;;;18.20;5.47;;;;;;;14.58;100.00;98210.63;5048814;28;19964;-53
2023/03/13 09:57:39;;;;;;;19.20;4.68;;;;;;;14.90;100.00;98212.13;5043850;28;20025;-60
2023/03/13 10:00:11;;;;;;;23.05;5.13;;;;;;;14.93;100.00;98228.38;5052761;28;20393;-50
2023/03/13 10:02:37;;;;;;;25.92;5.65;;;;;;;15.05;100.00;98204.81;5048639;28;20075;-61
2023/03/13 10:05:12;;;;;;;25.92;5.15;;;;;;;14.94;100.00;98223.81;5055530;28;20037;-62
2023/03/13 10:07:38;;;;;;;24.10;4.88;;;;;;;15.10;100.00;98222.69;5043418;28;20481;-53
2023/03/13 10:10:11;;;;;;;14.95;4.28;;;;;;;14.73;100.00;98233.78;5047464;28;20047;-57
2023/03/13 10:12:44;;;;;;;22.05;5.28;;;;;;;14.65;100.00;98229.81;5047373;28;20033;-58
2023/03/13 10:15:27;;;;;;;15.18;4.00;;;;;;;14.71;100.00;98236.72;5054041;28;20140;-57
2023/03/13 10:17:52;;;;;;;36.35;6.45;;;;;;;14.87;100.00;98258.81;5049049;28;20053;-56
2023/03/13 10:20:25;;;;;;;25.20;3.70;;;;;;;14.84;100.00;98240.66;5047367;28;20489;-55
2023/03/13 10:22:58;;;;;;;31.70;6.00;;;;;;;15.19;100.00;98239.72;5050416;28;20037;-50
2023/03/13 10:25:30;;;;;;;28.88;4.45;;;;;;;15.21;100.00;98237.56;5045582;28;20040;-60
2023/03/13 10:27:56;;;;;;;24.63;3.83;;;;;;;15.33;100.00;98252.44;5047067;28;20032;-59
2023/03/13 10:30:29;;;;;;;25.70;4.18;;;;;;;15.41;100.00;98259.88;5050527;28;20025;-62
2023/03/13 10:33:19;;;;;;;18.05;4.28;;;;;;;15.41;100.00;98266.03;5044808;28;20079;-58
2023/03/13 10:35:45;;;;;;;16.98;2.78;;;;;;;15.36;100.00;98255.38;5041516;28;20040;-59
2023/03/13 10:38:12;;;;;;;31.05;5.32;;;;;;;14.89;100.00;98274.53;5045781;28;20486;-57
2023/03/13 10:40:37;;;;;;;19.05;4.00;;;;;;;15.07;100.00;98273.13;5044481;28;20060;-60
2023/03/13 10:43:06;;;;;;;27.67;6.32;;;;;;;15.13;100.00;98275.50;5046051;28;20500;-52
2023/03/13 10:45:36;;;;;;;22.65;5.63;;;;;;;15.28;100.00;98277.28;5045794;28;20021;-52
2023/03/13 10:48:18;;;;;;;27.98;5.57;;;;;;;15.61;100.00;98297.13;5048449;28;20029;-55
2023/03/13 10:50:46;;;;;;;24.90;4.88;;;;;;;15.61;100.00;98238.38;5052136;28;20033;-55
2023/03/13 10:53:35;;;;;;;19.02;4.20;;;;;;;15.87;100.00;98273.72;5042622;28;20149;-56
2023/03/13 10:56:17;;;;;;;22.70;4.38;;;;;;;15.76;100.00;98277.56;5038201;28;20187;-54
2023/03/13 10:58:50;;;;;;;;;;;;;;;15.47;100.00;98267.56;5050972;28;20081;-56
2023/03/13 11:01:23;;;;;;;24.17;3.88;;;;;;;15.27;100.00;98278.38;5046660;28;19947;-56
2023/03/13 11:03:51;;;;;;;31.10;3.92;;;;;;;15.21;100.00;98276.81;5047502;28;20102;-60
2023/03/13 11:06:24;;;;;;;21.77;5.05;;;;;;;15.15;100.00;98300.03;5042096;28;20073;-57
2023/03/13 11:08:58;;;;;;;24.58;5.40;;;;;;;15.42;100.00;98224.88;5048551;28;20025;-54
2023/03/13 11:11:29;;;;;;;28.27;7.22;;;;;;;15.21;100.00;98268.81;5047845;28;20028;-54
2023/03/13 11:13:55;;;;;;;22.08;5.57;;;;;;;15.25;100.00;98267.16;5046911;28;20032;-60
2023/03/13 11:16:25;;;;;;;12.50;3.80;;;;;;;15.35;100.00;98259.09;5041753;28;20033;-55
2023/03/13 11:19:12;;;;;;;18.65;4.65;;;;;;;15.63;100.00;98251.44;5047754;28;20235;-55
2023/03/13 11:21:46;;;;;;;32.53;6.70;;;;;;;15.42;100.00;98248.91;5045127;28;20029;-57
2023/03/13 11:24:23;;;;;;;29.45;6.60;;;;;;;15.35;100.00;98277.78;5050602;28;20056;-50